createdAt,value
2023-07-01T00:00:21.878Z,96987.00
2023-07-01T00:05:24.632Z,97026.03
2023-07-01T00:10:27.800Z,97055.44
2023-07-01T00:15:31.013Z,97020.63
2023-07-01T00:20:34.099Z,97032.22
2023-07-01T00:25:36.756Z,97051.94
2023-07-01T00:30:39.474Z,97045.00
2023-07-01T00:35:42.176Z,97044.59
2023-07-01T00:40:45.253Z,97029.06
2023-07-01T00:45:47.963Z,97026.88
2023-07-01T00:50:51.171Z,97018.81
2023-07-01T00:55:54.906Z,97024.44
2023-07-01T01:01:00.290Z,97016.53
2023-07-01T01:06:25.383Z,97008.59
2023-07-01T01:11:30.910Z,97026.09
2023-07-01T01:16:35.413Z,97030.53
2023-07-01T01:21:39.498Z,97021.03
2023-07-01T01:26:44.766Z,97015.25
2023-07-01T01:31:47.654Z,97024.88
2023-07-01T01:36:56.082Z,96954.97
2023-07-01T01:42:07.519Z,96945.19
2023-07-01T01:47:10.407Z,96983.13
2023-07-01T01:52:17.023Z,97015.38
2023-07-01T01:57:20.399Z,97015.41
2023-07-01T02:02:23.048Z,96993.63
2023-07-01T02:07:26.049Z,96975.78
2023-07-01T02:12:28.621Z,97003.94
2023-07-01T02:17:31.312Z,96979.97
2023-07-01T02:22:34.007Z,96994.16
2023-07-01T02:27:36.585Z,96996.72
2023-07-01T02:32:40.046Z,96993.47
2023-07-01T02:37:42.592Z,96990.94
2023-07-01T02:42:45.312Z,96996.50
2023-07-01T02:47:47.991Z,96963.47
2023-07-01T02:52:50.547Z,97006.88
2023-07-01T02:57:53.266Z,97001.69
2023-07-01T03:02:56.071Z,96983.44
2023-07-01T03:07:58.655Z,96943.09
2023-07-01T03:13:01.666Z,96970.09
2023-07-01T03:18:05.056Z,96947.25
2023-07-01T03:23:08.206Z,96938.13
2023-07-01T03:28:10.919Z,96989.75
2023-07-01T03:33:14.180Z,96973.09
2023-07-01T03:38:17.050Z,96964.59
2023-07-01T03:43:19.700Z,96894.88
2023-07-01T03:48:22.508Z,96960.34
2023-07-01T03:53:25.336Z,96956.25
2023-07-01T03:58:27.877Z,96912.16
2023-07-01T04:03:30.486Z,96928.28
2023-07-01T04:08:33.147Z,96939.44
2023-07-01T04:13:35.811Z,96948.63
2023-07-01T04:18:38.584Z,96874.34
2023-07-01T04:23:41.247Z,96968.34
2023-07-01T04:28:43.882Z,96966.59
2023-07-01T04:33:46.910Z,96964.47
2023-07-01T04:38:49.898Z,96890.75
2023-07-01T04:43:52.431Z,96976.84
2023-07-01T04:48:55.146Z,96976.56
2023-07-01T04:53:57.837Z,96955.03
2023-07-01T04:59:00.558Z,96969.00
2023-07-01T05:04:03.367Z,96944.94
2023-07-01T05:09:07.871Z,96939.34
2023-07-01T05:14:10.586Z,96881.94
2023-07-01T05:19:13.246Z,96927.78
2023-07-01T05:24:16.271Z,96847.03
2023-07-01T05:29:19.863Z,96913.94
2023-07-01T05:34:22.610Z,96915.41
2023-07-01T05:39:25.666Z,96834.25
2023-07-01T05:44:28.595Z,96889.03
2023-07-01T05:49:31.336Z,96920.69
2023-07-01T05:54:33.975Z,96703.63
2023-07-01T05:59:36.885Z,96924.19
2023-07-01T06:04:39.602Z,96832.09
2023-07-01T06:09:49.275Z,96919.56
2023-07-01T06:14:51.838Z,96697.94
2023-07-01T06:19:54.531Z,96933.38
2023-07-01T06:24:57.529Z,96819.78
2023-07-01T06:30:00.283Z,96860.56
2023-07-01T06:35:03.021Z,96923.72
2023-07-01T06:40:06.345Z,96959.81
2023-07-01T06:45:09.260Z,96893.34
2023-07-01T06:50:11.883Z,96992.09
2023-07-01T06:55:17.420Z,96884.75
2023-07-01T07:00:20.330Z,96803.22
2023-07-01T07:05:22.994Z,96996.00
2023-07-01T07:10:25.538Z,96881.38
2023-07-01T07:15:28.223Z,96937.31
2023-07-01T07:20:30.869Z,96752.56
2023-07-01T07:25:37.467Z,96982.28
2023-07-01T07:30:40.225Z,96960.91
2023-07-01T07:35:43.006Z,96857.25
2023-07-01T07:40:46.062Z,96937.22
2023-07-01T07:45:49.170Z,96918.97
2023-07-01T07:50:51.707Z,96961.28
2023-07-01T07:55:54.390Z,96954.84
2023-07-01T08:00:56.917Z,96956.53
2023-07-01T08:05:59.597Z,96961.13
2023-07-01T08:11:02.517Z,96961.47
2023-07-01T08:16:06.670Z,96962.28
2023-07-01T08:21:09.408Z,96950.56
2023-07-01T08:26:12.134Z,96903.44
2023-07-01T08:31:15.008Z,96859.97
2023-07-01T08:36:17.833Z,96949.22
2023-07-01T08:41:23.909Z,96701.81
2023-07-01T08:46:26.859Z,96922.63
2023-07-01T08:51:42.599Z,96894.97
2023-07-01T08:56:49.395Z,96917.13
2023-07-01T09:01:52.554Z,96767.00
2023-07-01T09:06:55.386Z,96914.75
2023-07-01T09:11:58.023Z,96889.88
2023-07-01T09:17:00.646Z,96871.31
2023-07-01T09:22:10.248Z,96717.56
2023-07-01T09:27:12.921Z,96778.34
2023-07-01T09:32:30.716Z,96899.41
2023-07-01T09:37:34.394Z,96895.28
2023-07-01T09:42:52.011Z,96877.44
2023-07-01T09:47:54.978Z,96832.63
2023-07-01T09:52:58.842Z,96851.81
2023-07-01T09:58:01.528Z,96776.53
2023-07-01T10:03:04.674Z,96883.47
2023-07-01T10:08:08.221Z,96868.19
2023-07-01T10:13:11.103Z,96868.69
2023-07-01T10:18:24.351Z,96850.22
2023-07-01T10:23:45.578Z,96852.28
2023-07-01T10:28:48.160Z,96882.78
2023-07-01T10:33:54.871Z,96910.53
2023-07-01T10:39:35.261Z,96900.31
2023-07-01T10:44:38.064Z,96881.25
2023-07-01T10:50:04.536Z,96877.66
2023-07-01T10:55:46.685Z,96859.66
2023-07-01T11:00:57.135Z,96753.22
2023-07-01T11:06:00.367Z,96856.69
2023-07-01T11:11:03.111Z,96854.63
2023-07-01T11:16:08.746Z,96864.00
2023-07-01T11:21:13.494Z,96852.03
2023-07-01T11:26:27.129Z,96848.00
2023-07-01T11:31:34.487Z,96855.78
2023-07-01T11:36:41.307Z,96847.63
2023-07-01T11:41:46.514Z,96855.66
2023-07-01T11:46:49.333Z,96760.94
2023-07-01T11:51:56.974Z,96856.00
2023-07-01T11:57:20.209Z,96844.28
2023-07-01T12:02:34.187Z,96796.00
2023-07-01T12:07:37.100Z,96812.94
2023-07-01T12:12:40.027Z,96802.84
2023-07-01T12:17:43.091Z,96603.75
2023-07-01T12:22:45.792Z,96658.06
2023-07-01T12:27:48.351Z,96844.13
2023-07-01T12:32:52.318Z,96681.75
2023-07-01T12:37:55.892Z,96692.16
2023-07-01T12:42:58.791Z,96838.19
2023-07-01T12:48:02.732Z,96741.47
2023-07-01T12:53:05.421Z,96826.56
2023-07-01T12:58:08.152Z,96746.69
2023-07-01T13:03:10.855Z,96696.84
2023-07-01T13:08:14.796Z,96838.84
2023-07-01T13:13:17.528Z,96847.63
2023-07-01T13:18:24.638Z,96850.72
2023-07-01T13:23:32.127Z,96772.72
2023-07-01T13:28:36.121Z,96753.50
2023-07-01T13:33:41.856Z,96834.75
2023-07-01T13:38:44.645Z,96715.00
2023-07-01T13:43:47.787Z,96751.84
2023-07-01T13:48:51.467Z,96853.31
2023-07-01T13:53:56.295Z,96664.50
2023-07-01T13:58:59.405Z,96869.06
2023-07-01T14:04:02.866Z,96627.00
2023-07-01T14:09:05.723Z,96758.41
2023-07-01T14:14:08.450Z,96714.50
2023-07-01T14:19:12.930Z,96831.09
2023-07-01T14:24:25.346Z,96600.75
2023-07-01T14:29:29.263Z,96778.34
2023-07-01T14:34:42.415Z,96830.88
2023-07-01T14:39:55.677Z,96748.34
2023-07-01T14:44:59.410Z,96831.84
2023-07-01T14:50:02.033Z,96828.16
2023-07-01T14:55:05.171Z,96818.03
2023-07-01T15:00:08.687Z,96596.19
2023-07-01T15:05:11.358Z,96855.78
2023-07-01T15:10:14.048Z,96799.31
2023-07-01T15:15:16.845Z,96614.50
2023-07-01T15:20:19.525Z,96616.72
2023-07-01T15:25:22.138Z,96837.09
2023-07-01T15:30:24.794Z,96750.13
2023-07-01T15:35:28.409Z,96844.28
2023-07-01T15:40:32.192Z,96608.22
2023-07-01T15:45:35.568Z,96834.28
2023-07-01T15:50:38.229Z,96821.44
2023-07-01T15:55:41.031Z,96637.59
2023-07-01T16:00:43.698Z,96741.69
2023-07-01T16:05:47.556Z,96785.38
2023-07-01T16:10:50.878Z,96856.31
2023-07-01T16:16:02.040Z,96864.47
2023-07-01T16:21:05.773Z,96855.63
2023-07-01T16:26:09.265Z,96877.22
2023-07-01T16:31:23.296Z,96844.72
2023-07-01T16:36:35.943Z,96893.44
2023-07-01T16:41:38.691Z,96895.97
2023-07-01T16:46:42.811Z,96878.25
2023-07-01T16:51:45.813Z,96846.03
2023-07-01T16:56:55.105Z,96896.78
2023-07-01T17:01:58.674Z,96912.63
2023-07-01T17:07:01.415Z,96865.88
2023-07-01T17:12:04.510Z,96705.06
2023-07-01T17:17:18.394Z,96844.03
2023-07-01T17:22:23.909Z,96782.91
2023-07-01T17:27:27.168Z,96686.81
2023-07-01T17:32:30.785Z,96672.13
2023-07-01T17:37:33.771Z,96801.78
2023-07-01T17:42:36.662Z,96819.13
2023-07-01T17:47:39.649Z,96710.66
2023-07-01T17:52:42.603Z,96788.38
2023-07-01T18:02:51.677Z,96873.84
2023-07-01T18:07:54.457Z,96708.81
2023-07-01T18:12:57.095Z,96654.28
2023-07-01T18:17:59.781Z,96626.03
2023-07-01T18:23:02.528Z,96643.13
2023-07-01T18:28:05.287Z,96691.88
2023-07-01T18:33:07.884Z,96671.28
2023-07-01T18:38:10.611Z,96877.03
2023-07-01T18:43:13.304Z,96941.84
2023-07-01T18:48:16.027Z,96959.06
2023-07-01T18:53:19.022Z,96931.78
2023-07-01T18:58:23.121Z,96725.28
2023-07-01T19:03:25.822Z,96843.28
2023-07-01T19:08:28.552Z,96955.75
2023-07-01T19:13:31.732Z,96723.34
2023-07-01T19:18:34.671Z,96928.25
2023-07-01T19:23:38.092Z,96896.81
2023-07-01T19:28:40.810Z,96978.47
2023-07-01T19:33:43.722Z,96967.84
2023-07-01T19:38:46.539Z,96915.03
2023-07-01T19:43:52.744Z,96895.59
2023-07-01T19:48:55.718Z,96940.88
2023-07-01T19:53:58.338Z,96986.84
2023-07-01T19:59:01.012Z,96952.56
2023-07-01T20:10:39.416Z,97004.63
2023-07-01T20:15:44.966Z,96994.13
2023-07-01T20:20:47.744Z,96968.16
2023-07-01T20:25:50.481Z,96973.50
2023-07-01T20:30:53.424Z,97020.66
2023-07-01T20:35:56.341Z,97006.03
2023-07-01T20:40:59.106Z,97016.16
2023-07-01T20:46:01.667Z,97024.78
2023-07-01T20:51:04.569Z,97019.84
2023-07-01T20:56:07.229Z,97015.22
2023-07-01T21:01:09.762Z,97025.53
2023-07-01T21:06:12.497Z,97017.34
2023-07-01T21:11:15.264Z,97016.22
2023-07-01T21:16:17.793Z,97025.56
2023-07-01T21:21:20.548Z,97003.47
2023-07-01T21:26:28.402Z,97033.44
2023-07-01T21:31:32.179Z,97029.09
2023-07-01T21:36:34.996Z,96998.50
2023-07-01T21:41:42.099Z,97027.59
2023-07-01T21:46:44.938Z,97008.03
2023-07-01T21:51:48.537Z,97032.53
2023-07-01T21:56:51.418Z,97000.31
2023-07-01T22:01:54.118Z,97028.16
2023-07-01T22:06:56.721Z,97028.44
2023-07-01T22:11:59.227Z,97044.56
2023-07-01T22:17:01.958Z,97040.69
2023-07-01T22:22:04.619Z,97048.09
2023-07-01T22:27:07.816Z,97046.28
2023-07-01T22:32:10.549Z,97054.19
2023-07-01T22:37:13.925Z,97047.47
2023-07-01T22:42:16.505Z,97052.56
2023-07-01T22:47:19.437Z,97054.47
2023-07-01T22:52:21.978Z,97001.44
2023-07-01T22:57:24.628Z,97030.47
2023-07-01T23:02:27.611Z,97054.81
2023-07-01T23:07:30.243Z,97041.84
2023-07-01T23:12:34.551Z,97045.91
2023-07-01T23:17:37.112Z,97041.84
2023-07-01T23:22:40.019Z,97047.13
2023-07-01T23:27:45.655Z,97050.41
2023-07-01T23:32:54.314Z,96835.28
2023-07-01T23:37:58.903Z,97051.66
2023-07-01T23:43:01.503Z,97008.50
2023-07-01T23:48:04.331Z,97055.97
2023-07-01T23:53:06.873Z,97052.94
2023-07-01T23:58:09.384Z,97059.06
